logo
Search for airport 
image banner adimage banner adimage banner ad
image banner ad

FLPZ - Pedza

Located in , Zambia

ICAO - , IATA -

Data provided by Airmate  

General information

Coordinates: S15°32'53" E28°11'39"
Elevation is 3976 feet MSL.
 
View others Airports in Lusaka Province

Operational data

Special qualification required
Current time UTC:
Current local time:
Weather at : FLKK - Kenneth Kaunda Intl ( 37 km )
METAR: FLKK 171300Z 06011KT 9999 SCT035 22/07 Q1022 NOSIG
View NOTAMs / SUP AIP / TFR affecting this airport [VIEW]
Communications frequencies: [VIEW]

Runways:

Airport contact information

Address: Zambia

Satellite view of FLPZ